Time;durP1;ratioP1;P1;durP2;ratioP2;P2;SDS_P1;SDS_P2;PMS_P1;PMS_P2;Temp;Humidity;BMP_temperature;BMP_pressure;BME280_temperature;BME280_humidity;BME280_pressure;Samples;Min_cycle;Max_cycle;Signal;HPM_P1;HPM_P2
2021/11/05 00:01:37;;;;;;;26.65;17.27;;;9.10;99.90;;;;;;4124738;28;20049;-73
2021/11/05 00:03:38;;;;;;;33.00;17.77;;;9.10;99.90;;;;;;4124173;28;20041;-73
2021/11/05 00:05:39;;;;;;;24.15;17.77;;;9.00;99.90;;;;;;4121587;28;20515;-73
2021/11/05 00:07:39;;;;;;;23.30;16.67;;;9.00;99.90;;;;;;4125688;28;20054;-73
2021/11/05 00:09:43;;;;;;;23.17;17.52;;;9.00;99.90;;;;;;4125226;28;20586;-73
2021/11/05 00:11:43;;;;;;;21.58;17.02;;;9.00;99.90;;;;;;4125715;28;20049;-73
2021/11/05 00:13:44;;;;;;;22.20;16.85;;;9.00;99.90;;;;;;4120900;28;20038;-73
2021/11/05 00:15:44;;;;;;;22.95;16.77;;;9.10;99.90;;;;;;4127756;28;20161;-74
2021/11/05 00:17:45;;;;;;;22.50;16.95;;;9.00;99.90;;;;;;4121540;28;20034;-73
2021/11/05 00:19:46;;;;;;;25.42;16.67;;;9.10;99.90;;;;;;4122076;28;20042;-73
2021/11/05 00:21:46;;;;;;;19.85;14.13;;;9.10;99.90;;;;;;4125867;28;20057;-73
2021/11/05 00:23:47;;;;;;;21.02;15.55;;;9.10;99.90;;;;;;4120543;28;20553;-73
2021/11/05 00:25:47;;;;;;;18.90;13.55;;;9.10;99.90;;;;;;4121408;28;20053;-73
2021/11/05 00:27:48;;;;;;;20.40;13.93;;;9.10;99.90;;;;;;4125091;28;20412;-73
2021/11/05 00:29:49;;;;;;;18.80;13.68;;;9.10;99.90;;;;;;4123197;28;20607;-73
2021/11/05 00:31:50;;;;;;;20.50;14.93;;;9.10;99.90;;;;;;4125641;28;20169;-73
2021/11/05 00:33:50;;;;;;;19.75;14.25;;;9.10;99.90;;;;;;4121531;28;20030;-73
2021/11/05 00:35:51;;;;;;;18.15;13.93;;;9.00;99.90;;;;;;4123536;28;20560;-73
2021/11/05 00:37:52;;;;;;;18.48;13.98;;;9.00;99.90;;;;;;4125794;28;20037;-73
2021/11/05 00:39:53;;;;;;;17.30;13.30;;;9.10;99.90;;;;;;4126255;28;20108;-73
2021/11/05 00:41:53;;;;;;;17.25;13.38;;;9.10;99.90;;;;;;4125870;28;20422;-73
2021/11/05 00:43:54;;;;;;;19.27;14.43;;;9.00;99.90;;;;;;4123412;28;20152;-73
2021/11/05 00:45:55;;;;;;;18.95;14.38;;;9.10;99.90;;;;;;4122279;28;20046;-72
2021/11/05 00:47:55;;;;;;;17.55;13.25;;;9.00;99.90;;;;;;4122566;28;20034;-73
2021/11/05 00:49:56;;;;;;;20.90;15.57;;;9.00;99.90;;;;;;4126750;28;20034;-73
2021/11/05 00:51:56;;;;;;;17.83;12.98;;;9.10;99.90;;;;;;4120798;28;20031;-73
2021/11/05 00:53:57;;;;;;;17.65;13.65;;;9.00;99.90;;;;;;4123191;28;20038;-73
2021/11/05 00:55:58;;;;;;;17.55;12.90;;;9.00;99.90;;;;;;4120339;28;20058;-73
2021/11/05 00:57:58;;;;;;;16.65;12.43;;;9.10;99.90;;;;;;4123271;28;20038;-73
2021/11/05 00:59:59;;;;;;;18.58;13.25;;;9.10;99.90;;;;;;4120623;28;20057;-73
2021/11/05 01:02:00;;;;;;;19.40;13.57;;;9.10;99.90;;;;;;4124569;28;20038;-73
2021/11/05 01:04:00;;;;;;;21.40;14.93;;;9.10;99.90;;;;;;4121016;28;20476;-73
2021/11/05 01:06:01;;;;;;;19.38;13.45;;;9.00;99.90;;;;;;4122893;28;20450;-73
2021/11/05 01:08:04;;;;;;;17.95;12.70;;;9.00;99.90;;;;;;4122925;28;20087;-73
2021/11/05 01:10:05;;;;;;;19.08;13.55;;;9.10;99.90;;;;;;4123404;28;20026;-73
2021/11/05 01:12:07;;;;;;;19.25;14.13;;;9.10;99.90;;;;;;4125671;28;20061;-74
2021/11/05 01:14:07;;;;;;;22.00;14.98;;;9.10;99.90;;;;;;4119290;28;20037;-73
2021/11/05 01:16:08;;;;;;;19.30;14.32;;;9.10;99.90;;;;;;4124685;28;20054;-73
2021/11/05 01:18:08;;;;;;;17.92;13.05;;;9.10;99.90;;;;;;4120398;28;20027;-73
2021/11/05 01:20:13;;;;;;;19.13;13.32;;;9.10;99.90;;;;;;4122704;28;20077;-73
2021/11/05 01:22:14;;;;;;;17.15;12.50;;;9.10;99.90;;;;;;4122634;28;20096;-73
2021/11/05 01:24:14;;;;;;;19.40;13.55;;;9.10;99.90;;;;;;4123955;28;20038;-73
2021/11/05 01:26:15;;;;;;;21.75;15.38;;;9.10;99.90;;;;;;4121784;28;20107;-73
2021/11/05 01:28:16;;;;;;;19.63;13.88;;;9.10;99.90;;;;;;4121958;28;20045;-73
2021/11/05 01:30:17;;;;;;;19.70;14.05;;;9.00;99.90;;;;;;4122346;28;20494;-73
2021/11/05 01:32:18;;;;;;;19.23;13.50;;;9.10;99.90;;;;;;4123381;28;20088;-73
2021/11/05 01:34:19;;;;;;;21.75;14.27;;;9.10;99.90;;;;;;4128092;28;20507;-73
2021/11/05 01:36:20;;;;;;;20.88;14.07;;;9.10;99.90;;;;;;4123643;28;20038;-73
2021/11/05 01:38:20;;;;;;;22.13;14.55;;;9.00;99.90;;;;;;4118484;28;20045;-73
2021/11/05 01:40:21;;;;;;;21.30;14.75;;;9.00;99.90;;;;;;4124146;28;20053;-73
2021/11/05 01:42:22;;;;;;;20.17;14.10;;;8.90;99.90;;;;;;4125337;28;20490;-73
2021/11/05 01:44:25;;;;;;;25.02;15.50;;;9.00;99.90;;;;;;4124215;28;20506;-73
2021/11/05 01:46:25;;;;;;;18.27;13.00;;;9.00;99.90;;;;;;4126851;28;20057;-73
2021/11/05 01:48:26;;;;;;;20.77;14.32;;;9.00;99.90;;;;;;4125154;28;20030;-74
2021/11/05 01:50:27;;;;;;;18.63;12.93;;;9.00;99.90;;;;;;4126265;28;20398;-73
2021/11/05 01:52:28;;;;;;;17.10;12.27;;;9.00;99.90;;;;;;4122746;28;20026;-73
2021/11/05 01:54:28;;;;;;;17.90;12.65;;;9.00;99.90;;;;;;4104621;28;20506;-73
2021/11/05 01:56:30;;;;;;;16.55;12.25;;;9.00;99.90;;;;;;4126492;28;20057;-73
2021/11/05 01:58:31;;;;;;;26.05;14.13;;;9.00;99.90;;;;;;4120714;28;20256;-73
2021/11/05 02:00:32;;;;;;;17.48;12.00;;;9.00;99.90;;;;;;4119602;28;20446;-73
2021/11/05 02:02:33;;;;;;;21.00;13.52;;;9.00;99.90;;;;;;4123588;28;20054;-73
2021/11/05 02:04:35;;;;;;;21.30;14.20;;;9.00;99.90;;;;;;4125790;28;20069;-73
2021/11/05 02:06:36;;;;;;;20.10;12.38;;;9.00;99.90;;;;;;4122749;28;20052;-74
2021/11/05 02:08:39;;;;;;;18.15;12.60;;;8.90;99.90;;;;;;4123820;28;20113;-73
2021/11/05 02:10:41;;;;;;;17.20;12.05;;;9.00;99.90;;;;;;4123231;28;20122;-73
2021/11/05 02:12:41;;;;;;;17.35;12.20;;;9.00;99.90;;;;;;4125361;28;20034;-74
2021/11/05 02:14:44;;;;;;;19.77;12.98;;;8.90;99.90;;;;;;4122092;28;20117;-73
2021/11/05 02:16:47;;;;;;;14.55;10.52;;;8.90;99.90;;;;;;4102585;28;20142;-73
2021/11/05 02:18:50;;;;;;;17.65;12.00;;;8.90;99.90;;;;;;4127765;28;20293;-73
2021/11/05 02:20:55;;;;;;;;;;;8.90;99.90;;;;;;4120618;28;20026;-73
2021/11/05 02:22:56;;;;;;;15.50;10.75;;;8.80;99.90;;;;;;4125178;28;19918;-73
2021/11/05 02:24:57;;;;;;;16.50;11.00;;;8.70;99.90;;;;;;4119856;28;20533;-73
2021/11/05 02:26:58;;;;;;;15.68;10.82;;;8.70;99.90;;;;;;4127128;28;20026;-74
2021/11/05 02:28:59;;;;;;;18.00;12.15;;;8.70;99.90;;;;;;4119926;28;20449;-73
2021/11/05 02:30:59;;;;;;;18.38;12.63;;;8.70;99.90;;;;;;4123809;28;20022;-73
2021/11/05 02:33:01;;;;;;;17.50;11.90;;;8.70;99.90;;;;;;4143647;28;20034;-73
2021/11/05 02:35:02;;;;;;;15.52;10.35;;;8.70;99.90;;;;;;4126355;28;20452;-73
2021/11/05 02:37:05;;;;;;;13.93;9.52;;;8.70;99.90;;;;;;4121437;28;20026;-73
2021/11/05 02:39:07;;;;;;;14.73;10.57;;;8.70;99.90;;;;;;4125330;28;20647;-73
2021/11/05 02:41:08;;;;;;;16.70;10.80;;;8.80;99.90;;;;;;4129131;28;20084;-73
2021/11/05 02:43:08;;;;;;;14.73;10.30;;;8.80;99.90;;;;;;4126864;28;20118;-73
2021/11/05 02:45:10;;;;;;;15.85;10.82;;;8.80;99.90;;;;;;4125067;28;20361;-74
2021/11/05 02:47:24;;;;;;;15.75;11.35;;;8.80;99.90;;;;;;4126608;28;20042;-73
2021/11/05 02:49:25;;;;;;;14.27;10.05;;;8.80;99.90;;;;;;4127723;28;20038;-73
2021/11/05 02:51:27;;;;;;;15.38;10.50;;;8.80;99.90;;;;;;4125099;28;20043;-73
2021/11/05 02:53:27;;;;;;;15.13;11.00;;;8.80;99.90;;;;;;4127557;28;20034;-73
2021/11/05 02:55:28;;;;;;;15.35;10.82;;;8.70;99.90;;;;;;4124359;28;20692;-73
2021/11/05 02:57:28;;;;;;;14.07;10.45;;;8.70;99.90;;;;;;4127224;28;20030;-74
2021/11/05 02:59:29;;;;;;;14.55;10.30;;;8.70;99.90;;;;;;4111215;28;20832;-73
2021/11/05 03:01:30;;;;;;;13.27;9.10;;;8.70;99.90;;;;;;4125314;28;20452;-73
2021/11/05 03:03:31;;;;;;;15.00;10.07;;;8.70;99.90;;;;;;4128347;28;20027;-73
2021/11/05 03:05:31;;;;;;;14.02;9.98;;;8.70;99.90;;;;;;4127253;28;20500;-73
2021/11/05 03:07:32;;;;;;;14.07;10.20;;;8.70;99.90;;;;;;4124624;28;20049;-74
2021/11/05 03:09:36;;;;;;;13.00;9.52;;;8.70;99.90;;;;;;4128603;28;20478;-74
2021/11/05 03:11:37;;;;;;;14.93;10.82;;;8.70;99.90;;;;;;4124602;28;20038;-73
2021/11/05 03:13:40;;;;;;;12.43;9.27;;;8.60;99.90;;;;;;4121064;28;20146;-73
2021/11/05 03:15:41;;;;;;;13.05;9.68;;;8.60;99.90;;;;;;4124121;28;20049;-74
2021/11/05 03:17:42;;;;;;;14.05;10.27;;;8.60;99.90;;;;;;4122280;28;20042;-73
2021/11/05 03:19:43;;;;;;;14.15;10.32;;;8.70;99.90;;;;;;4124381;28;20661;-73
2021/11/05 03:21:44;;;;;;;14.32;9.93;;;8.60;99.90;;;;;;4123929;28;20117;-73
2021/11/05 03:23:44;;;;;;;14.85;10.38;;;8.70;99.90;;;;;;4125236;28;20391;-73
2021/11/05 03:25:45;;;;;;;13.50;10.02;;;8.60;99.90;;;;;;4127853;28;20041;-73
2021/11/05 03:27:46;;;;;;;12.40;9.15;;;8.60;99.90;;;;;;4124342;28;20124;-73
2021/11/05 03:29:47;;;;;;;16.02;11.18;;;8.60;99.90;;;;;;4126003;28;20043;-73
2021/11/05 03:31:47;;;;;;;13.48;9.73;;;8.60;99.90;;;;;;4124044;28;20050;-73
2021/11/05 03:33:48;;;;;;;15.07;10.27;;;8.60;99.90;;;;;;4125762;28;20066;-73
2021/11/05 03:35:48;;;;;;;14.02;10.13;;;8.50;99.90;;;;;;4123337;28;20026;-73
2021/11/05 03:37:49;;;;;;;13.52;9.82;;;8.50;99.90;;;;;;4123508;28;20045;-73
2021/11/05 03:39:50;;;;;;;14.65;9.77;;;8.50;99.90;;;;;;4123237;28;20038;-74
2021/11/05 03:41:50;;;;;;;14.18;9.60;;;8.50;99.90;;;;;;4122365;28;20058;-73
2021/11/05 03:43:51;;;;;;;15.65;10.40;;;8.60;99.90;;;;;;4125273;28;20073;-73
2021/11/05 03:45:52;;;;;;;13.30;9.98;;;8.60;99.90;;;;;;4128296;28;20058;-73
2021/11/05 03:47:53;;;;;;;13.18;9.95;;;8.60;99.90;;;;;;4120772;28;20034;-73
2021/11/05 03:49:53;;;;;;;12.25;9.35;;;8.60;99.90;;;;;;4127072;28;20482;-73
2021/11/05 03:51:54;;;;;;;13.43;9.75;;;8.60;99.90;;;;;;4121486;28;20170;-73
2021/11/05 03:53:54;;;;;;;19.02;11.88;;;8.60;99.90;;;;;;4129760;28;20121;-73
2021/11/05 03:55:55;;;;;;;16.05;10.88;;;8.50;99.90;;;;;;4123146;28;20026;-73
2021/11/05 03:57:56;;;;;;;15.02;10.52;;;8.50;99.90;;;;;;4127536;28;20375;-73
2021/11/05 03:59:56;;;;;;;16.70;11.73;;;8.50;99.90;;;;;;4126962;28;20038;-74
2021/11/05 04:01:57;;;;;;;15.90;11.02;;;8.50;99.90;;;;;;4121884;28;20042;-74
2021/11/05 04:03:58;;;;;;;14.02;9.50;;;8.50;99.90;;;;;;4123444;28;20048;-73
2021/11/05 04:05:59;;;;;;;15.30;10.68;;;8.50;99.90;;;;;;4125308;28;20041;-74
2021/11/05 04:08:00;;;;;;;13.85;10.55;;;8.50;99.90;;;;;;4121911;28;20061;-73
2021/11/05 04:10:00;;;;;;;14.75;10.95;;;8.40;99.90;;;;;;4125144;28;20041;-73
2021/11/05 04:12:01;;;;;;;13.85;9.65;;;8.40;99.90;;;;;;4128135;28;20034;-74
2021/11/05 04:14:02;;;;;;;14.05;10.18;;;8.40;99.90;;;;;;4119520;28;20497;-74
2021/11/05 04:16:03;;;;;;;13.80;9.85;;;8.40;99.90;;;;;;4125133;28;20111;-74
2021/11/05 04:18:04;;;;;;;13.68;9.35;;;8.50;99.90;;;;;;4107119;28;20066;-73
2021/11/05 04:20:06;;;;;;;13.85;10.30;;;8.50;99.90;;;;;;4123968;28;20168;-73
2021/11/05 04:22:07;;;;;;;14.32;10.15;;;8.50;99.90;;;;;;4120354;28;20405;-73
2021/11/05 04:24:08;;;;;;;13.82;10.18;;;8.40;99.90;;;;;;4124300;28;20040;-73
2021/11/05 04:26:09;;;;;;;13.77;9.57;;;8.50;99.90;;;;;;4125478;28;20439;-73
2021/11/05 04:28:11;;;;;;;15.45;10.95;;;8.50;99.90;;;;;;4125673;28;20649;-73
2021/11/05 04:30:13;;;;;;;16.08;10.23;;;8.50;99.90;;;;;;4123833;28;20089;-73
2021/11/05 04:32:14;;;;;;;14.88;11.05;;;8.50;99.90;;;;;;4124615;28;20041;-73
2021/11/05 04:34:15;;;;;;;15.43;11.57;;;8.50;99.90;;;;;;4126664;28;20034;-73
2021/11/05 04:36:17;;;;;;;14.38;11.07;;;8.50;99.90;;;;;;4123525;28;20275;-73
2021/11/05 04:38:19;;;;;;;;;;;8.50;99.90;;;;;;4122527;28;21509;-73
2021/11/05 04:40:19;;;;;;;16.33;11.32;;;8.50;99.90;;;;;;4118240;28;19984;-74
2021/11/05 04:42:20;;;;;;;16.63;11.93;;;8.40;99.90;;;;;;4125659;28;20041;-73
2021/11/05 04:44:21;;;;;;;16.23;11.68;;;8.40;99.90;;;;;;4121887;28;20039;-74
2021/11/05 04:46:21;;;;;;;17.35;12.02;;;8.40;99.90;;;;;;4121938;28;20061;-74
2021/11/05 04:48:22;;;;;;;16.92;11.20;;;8.30;99.90;;;;;;4124157;28;20034;-73
2021/11/05 04:50:23;;;;;;;14.45;10.52;;;8.30;99.90;;;;;;4124695;28;20085;-73
2021/11/05 04:52:23;;;;;;;15.00;10.48;;;8.30;99.90;;;;;;4123167;28;20047;-74
2021/11/05 04:54:24;;;;;;;14.10;10.30;;;8.40;99.90;;;;;;4122746;28;20061;-73
2021/11/05 04:56:24;;;;;;;15.93;10.25;;;8.40;99.90;;;;;;4123383;28;20038;-73
2021/11/05 04:58:25;;;;;;;13.93;10.20;;;8.40;99.90;;;;;;4124818;28;20453;-74
2021/11/05 05:00:27;;;;;;;12.88;9.30;;;8.30;99.90;;;;;;4119150;28;20042;-73
2021/11/05 05:02:27;;;;;;;14.93;9.70;;;8.40;99.90;;;;;;4118808;28;20042;-73
2021/11/05 05:04:28;;;;;;;14.45;10.43;;;8.40;99.90;;;;;;4123319;28;20494;-73
2021/11/05 05:06:29;;;;;;;14.55;10.55;;;8.30;99.90;;;;;;4126261;28;20034;-73
2021/11/05 05:08:29;;;;;;;14.93;10.13;;;8.40;99.90;;;;;;4127375;28;20409;-73
2021/11/05 05:10:30;;;;;;;13.57;9.57;;;8.40;99.90;;;;;;4123523;28;20049;-73
2021/11/05 05:12:31;;;;;;;13.00;10.13;;;8.40;99.90;;;;;;4122288;28;20517;-73
2021/11/05 05:14:31;;;;;;;15.02;10.57;;;8.40;99.90;;;;;;4126135;28;20049;-74
2021/11/05 05:16:32;;;;;;;14.27;10.27;;;8.40;99.90;;;;;;4126192;28;20041;-75
2021/11/05 05:18:33;;;;;;;14.00;10.18;;;8.50;99.90;;;;;;4129018;28;20296;-75
2021/11/05 05:20:33;;;;;;;14.07;9.73;;;8.50;99.90;;;;;;4127174;28;20038;-74
2021/11/05 05:22:36;;;;;;;12.55;9.20;;;8.50;99.90;;;;;;4128785;28;20048;-74
2021/11/05 05:24:37;;;;;;;14.55;9.98;;;8.50;99.90;;;;;;4128175;28;20034;-75
2021/11/05 05:26:37;;;;;;;13.13;9.48;;;8.50;99.90;;;;;;4124394;28;20030;-74
2021/11/05 05:28:38;;;;;;;12.80;9.27;;;8.60;99.90;;;;;;4127752;28;20182;-75
2021/11/05 05:30:39;;;;;;;14.45;9.77;;;8.60;99.90;;;;;;4124473;28;20483;-75
2021/11/05 05:32:42;;;;;;;14.57;10.00;;;8.50;99.90;;;;;;4125351;28;20034;-75
2021/11/05 05:34:42;;;;;;;16.70;11.00;;;8.60;99.90;;;;;;4125750;28;20112;-75
2021/11/05 05:36:43;;;;;;;14.77;10.70;;;8.60;99.90;;;;;;4128796;28;20038;-75
2021/11/05 05:38:44;;;;;;;14.70;10.48;;;8.60;99.90;;;;;;4109505;28;20034;-75
2021/11/05 05:40:44;;;;;;;17.08;11.18;;;8.60;99.90;;;;;;4105989;28;20038;-75
2021/11/05 05:42:45;;;;;;;17.50;11.88;;;8.60;99.90;;;;;;4145860;28;20200;-74
2021/11/05 05:44:46;;;;;;;16.67;10.88;;;8.50;99.90;;;;;;4127528;28;20068;-75
2021/11/05 05:46:46;;;;;;;16.33;11.45;;;8.60;99.90;;;;;;4127375;28;20034;-74
2021/11/05 05:48:47;;;;;;;16.52;11.13;;;8.50;99.90;;;;;;4121926;28;20563;-75
2021/11/05 05:50:48;;;;;;;18.92;13.00;;;8.50;99.90;;;;;;4126240;28;20449;-75
2021/11/05 05:52:49;;;;;;;20.23;12.90;;;8.50;99.90;;;;;;4123743;28;20043;-75
2021/11/05 05:54:50;;;;;;;16.33;11.18;;;8.40;99.90;;;;;;4126702;28;20037;-75
2021/11/05 05:56:50;;;;;;;17.65;12.43;;;8.40;99.90;;;;;;4127959;28;20145;-74
2021/11/05 05:58:51;;;;;;;14.45;11.02;;;8.40;99.90;;;;;;4124560;28;20022;-74
2021/11/05 06:00:52;;;;;;;15.73;11.23;;;8.40;99.90;;;;;;4126471;28;20038;-75
2021/11/05 06:02:52;;;;;;;17.88;11.82;;;8.40;99.90;;;;;;4128116;28;20039;-75
2021/11/05 06:04:54;;;;;;;14.10;10.00;;;8.40;99.90;;;;;;4130132;28;20025;-74
2021/11/05 06:06:55;;;;;;;15.40;11.18;;;8.40;99.90;;;;;;4131073;28;20030;-74
2021/11/05 06:08:56;;;;;;;15.75;11.25;;;8.40;99.90;;;;;;4128881;28;20034;-75
2021/11/05 06:10:57;;;;;;;18.27;11.68;;;8.40;99.90;;;;;;4132661;28;20051;-74
2021/11/05 06:12:58;;;;;;;18.90;12.43;;;8.50;99.90;;;;;;4129523;28;20231;-74
2021/11/05 06:14:59;;;;;;;16.67;11.52;;;8.40;99.90;;;;;;4129251;28;20101;-74
2021/11/05 06:17:00;;;;;;;17.42;11.80;;;8.40;99.90;;;;;;4130461;28;20091;-75
2021/11/05 06:19:00;;;;;;;15.80;11.30;;;8.50;99.90;;;;;;4129710;28;20064;-75
2021/11/05 06:21:01;;;;;;;15.00;11.23;;;8.40;99.90;;;;;;4125958;28;20042;-75
2021/11/05 06:23:02;;;;;;;16.90;11.30;;;8.40;99.90;;;;;;4128149;28;20046;-75
2021/11/05 06:25:04;;;;;;;16.23;11.30;;;8.40;99.90;;;;;;4128125;28;20037;-74
2021/11/05 06:27:05;;;;;;;14.90;9.20;;;8.40;99.90;;;;;;4111935;28;20122;-75
2021/11/05 06:29:06;;;;;;;19.30;12.52;;;8.50;99.90;;;;;;4134880;28;20342;-75
2021/11/05 06:31:06;;;;;;;15.63;10.48;;;8.50;99.90;;;;;;4127176;28;20058;-74
2021/11/05 06:33:07;;;;;;;16.77;11.77;;;8.50;99.90;;;;;;4120579;28;20300;-75
2021/11/05 06:35:09;;;;;;;16.48;10.65;;;8.50;99.90;;;;;;4127647;28;20030;-75
2021/11/05 06:37:10;;;;;;;15.02;10.57;;;8.50;99.90;;;;;;4125654;28;20038;-75
2021/11/05 06:39:11;;;;;;;16.92;11.55;;;8.50;99.90;;;;;;4126780;28;20043;-74
2021/11/05 06:41:13;;;;;;;19.63;12.73;;;8.50;99.90;;;;;;4118955;28;20479;-75
2021/11/05 06:43:14;;;;;;;18.20;12.65;;;8.50;99.90;;;;;;4128279;28;20096;-75
2021/11/05 06:45:15;;;;;;;17.52;11.95;;;8.50;99.90;;;;;;4121817;28;20414;-75
2021/11/05 06:47:16;;;;;;;17.00;11.15;;;8.50;99.90;;;;;;4124348;28;20128;-75
2021/11/05 06:49:16;;;;;;;16.27;11.20;;;8.50;99.90;;;;;;4124566;28;20038;-75
2021/11/05 06:51:17;;;;;;;19.75;11.75;;;8.50;99.90;;;;;;4109493;28;20497;-74
2021/11/05 06:53:18;;;;;;;17.52;11.88;;;8.50;99.90;;;;;;4118510;28;20395;-75
2021/11/05 06:55:18;;;;;;;18.33;12.10;;;8.50;99.90;;;;;;4112099;28;20465;-75
2021/11/05 06:57:19;;;;;;;17.73;12.15;;;8.40;99.90;;;;;;4125835;28;20069;-75
2021/11/05 06:59:19;;;;;;;15.45;10.85;;;8.40;99.90;;;;;;4125478;28;20034;-75
2021/11/05 07:01:20;;;;;;;17.38;11.57;;;8.40;99.90;;;;;;4124067;28;20130;-74
2021/11/05 07:03:20;;;;;;;18.33;11.77;;;8.40;99.90;;;;;;4124456;28;20042;-74
2021/11/05 07:05:22;;;;;;;19.25;11.60;;;8.40;99.90;;;;;;4124744;28;20702;-74
2021/11/05 07:07:23;;;;;;;16.05;11.10;;;8.40;99.90;;;;;;4123336;28;20026;-74
2021/11/05 07:09:24;;;;;;;14.32;10.40;;;8.40;99.90;;;;;;4122762;28;20501;-74
2021/11/05 07:11:25;;;;;;;14.93;10.10;;;8.40;99.90;;;;;;4126438;28;20116;-74
2021/11/05 07:13:27;;;;;;;18.75;11.60;;;8.40;99.90;;;;;;4123261;28;20084;-75
2021/11/05 07:15:27;;;;;;;12.97;9.10;;;8.40;99.90;;;;;;4125971;28;20093;-74
2021/11/05 07:17:28;;;;;;;14.50;10.10;;;8.40;99.90;;;;;;4126094;28;20308;-74
2021/11/05 07:19:29;;;;;;;15.30;9.57;;;8.40;99.90;;;;;;4124752;28;20606;-77
2021/11/05 07:21:30;;;;;;;15.38;10.27;;;8.50;99.90;;;;;;4122751;28;20038;-77
2021/11/05 07:23:32;;;;;;;11.68;8.77;;;8.50;99.90;;;;;;4123961;28;20048;-76
2021/11/05 07:25:33;;;;;;;16.45;11.40;;;8.50;99.90;;;;;;4124012;28;20638;-76
2021/11/05 07:27:34;;;;;;;15.23;10.15;;;8.50;99.90;;;;;;4121292;28;20026;-77
2021/11/05 07:29:34;;;;;;;15.25;10.65;;;8.50;99.90;;;;;;4126620;28;20049;-74
2021/11/05 07:31:35;;;;;;;17.98;11.52;;;8.50;99.90;;;;;;4124270;28;20030;-74
2021/11/05 07:33:36;;;;;;;17.65;10.98;;;8.50;99.90;;;;;;4122922;28;20875;-74
2021/11/05 07:35:36;;;;;;;18.02;11.20;;;8.50;99.90;;;;;;4123171;28;20026;-73
2021/11/05 07:37:37;;;;;;;16.15;11.13;;;8.40;99.90;;;;;;4125764;28;20058;-74
2021/11/05 07:39:37;;;;;;;17.10;11.25;;;8.40;99.90;;;;;;4125945;28;20034;-74
2021/11/05 07:41:38;;;;;;;15.38;10.45;;;8.40;99.90;;;;;;4124681;28;20049;-74
2021/11/05 07:43:39;;;;;;;19.50;12.63;;;8.40;99.90;;;;;;4126931;28;20422;-74
2021/11/05 07:45:40;;;;;;;15.10;10.07;;;8.40;99.90;;;;;;4124658;28;20061;-74
2021/11/05 07:47:41;;;;;;;16.30;10.20;;;8.40;99.90;;;;;;4123818;28;20038;-74
2021/11/05 07:49:42;;;;;;;19.10;11.77;;;8.40;99.90;;;;;;4123839;28;20046;-73
2021/11/05 07:51:42;;;;;;;19.08;11.45;;;8.50;99.90;;;;;;4119482;28;20527;-74
2021/11/05 07:53:43;;;;;;;19.67;12.57;;;8.50;99.90;;;;;;4121192;28;20040;-74
2021/11/05 07:55:47;;;;;;;16.67;10.55;;;8.40;99.90;;;;;;4124167;28;21279;-74
2021/11/05 07:57:48;;;;;;;17.10;10.45;;;8.40;99.90;;;;;;4123382;28;20405;-74
2021/11/05 07:59:49;;;;;;;17.77;12.32;;;8.50;99.90;;;;;;4123949;28;20324;-73
2021/11/05 08:01:49;;;;;;;15.27;10.00;;;8.40;99.90;;;;;;4127556;28;20532;-74
2021/11/05 08:03:50;;;;;;;16.77;11.18;;;8.50;99.90;;;;;;4128049;28;20141;-73
2021/11/05 08:05:51;;;;;;;17.23;11.02;;;8.50;99.90;;;;;;4121770;28;20038;-74
2021/11/05 08:07:52;;;;;;;16.17;11.00;;;8.50;99.90;;;;;;4124310;28;20184;-74
2021/11/05 08:09:52;;;;;;;16.08;10.35;;;8.50;99.90;;;;;;4123777;28;20459;-74
2021/11/05 08:11:53;;;;;;;16.95;10.63;;;8.50;99.90;;;;;;4121950;28;20225;-74
2021/11/05 08:13:54;;;;;;;18.25;10.73;;;8.50;99.90;;;;;;4124271;28;20045;-74
2021/11/05 08:15:55;;;;;;;14.50;10.02;;;8.60;99.90;;;;;;4105424;28;20057;-74
2021/11/05 08:17:55;;;;;;;14.20;9.60;;;8.60;99.90;;;;;;4123661;28;20692;-74
2021/11/05 08:19:57;;;;;;;14.57;9.65;;;8.70;99.90;;;;;;4107265;28;20035;-74
2021/11/05 08:21:57;;;;;;;15.45;9.98;;;8.70;99.90;;;;;;4126436;28;20528;-74
2021/11/05 08:24:00;;;;;;;15.57;9.48;;;8.70;99.90;;;;;;4125041;28;20054;-74
2021/11/05 08:26:01;;;;;;;16.70;10.60;;;8.70;99.90;;;;;;4120911;28;20426;-73
2021/11/05 08:28:01;;;;;;;15.73;10.02;;;8.70;99.90;;;;;;4116958;28;20038;-73
2021/11/05 08:30:16;;;;;;;17.30;10.40;;;8.70;99.90;;;;;;4123764;28;20023;-74
2021/11/05 08:32:17;;;;;;;12.27;9.05;;;8.70;99.90;;;;;;4124418;28;20033;-74
2021/11/05 08:34:17;;;;;;;15.73;10.38;;;8.70;99.90;;;;;;4125782;28;20160;-73
2021/11/05 08:36:23;;;;;;;17.75;10.98;;;8.80;99.90;;;;;;4123584;28;20096;-74
2021/11/05 08:38:25;;;;;;;17.20;11.25;;;8.70;99.90;;;;;;4126808;28;20046;-74
2021/11/05 08:40:27;;;;;;;16.77;10.57;;;8.80;99.90;;;;;;4120481;28;20587;-73
2021/11/05 08:42:28;;;;;;;16.88;10.00;;;8.80;99.90;;;;;;4123195;28;20274;-73
2021/11/05 08:44:30;;;;;;;14.20;10.13;;;8.80;99.90;;;;;;4125699;28;20488;-73
2021/11/05 08:46:31;;;;;;;14.02;9.93;;;8.80;99.90;;;;;;4129164;28;20045;-74
2021/11/05 08:48:33;;;;;;;17.20;9.63;;;8.90;99.90;;;;;;4111572;28;20084;-73
2021/11/05 08:50:34;;;;;;;15.25;10.35;;;8.90;99.90;;;;;;4126957;28;20467;-74
2021/11/05 08:52:35;;;;;;;16.08;10.10;;;9.00;99.90;;;;;;4124275;28;20053;-73
2021/11/05 08:54:38;;;;;;;12.25;8.68;;;9.00;99.90;;;;;;4122601;28;20030;-73
2021/11/05 08:56:39;;;;;;;12.25;8.65;;;9.00;99.90;;;;;;4123778;28;20042;-74
2021/11/05 08:58:40;;;;;;;12.32;8.68;;;9.10;99.90;;;;;;4126132;28;20043;-74
2021/11/05 09:00:42;;;;;;;10.95;7.80;;;9.10;99.90;;;;;;4125673;28;20046;-74
2021/11/05 09:02:44;;;;;;;13.35;7.93;;;9.10;99.90;;;;;;4124591;28;20049;-73
2021/11/05 09:04:44;;;;;;;14.93;8.57;;;9.20;99.90;;;;;;4124116;28;20065;-73
2021/11/05 09:06:46;;;;;;;14.25;7.78;;;9.20;99.90;;;;;;4123188;28;20042;-74
2021/11/05 09:08:49;;;;;;;10.50;7.70;;;9.30;99.90;;;;;;4125403;28;20034;-74
2021/11/05 09:10:49;;;;;;;9.57;6.85;;;9.40;99.90;;;;;;4122527;28;20034;-74
2021/11/05 09:12:50;;;;;;;9.70;6.32;;;9.50;99.90;;;;;;4131332;28;20038;-73
2021/11/05 09:14:51;;;;;;;11.93;7.22;;;9.60;99.90;;;;;;4120681;28;20121;-74
2021/11/05 09:16:51;;;;;;;10.30;6.97;;;9.60;99.90;;;;;;4122338;28;20941;-74
2021/11/05 09:18:52;;;;;;;8.90;5.50;;;9.70;99.90;;;;;;4124430;28;20046;-74
2021/11/05 09:20:53;;;;;;;15.20;8.40;;;9.90;99.90;;;;;;4128732;28;20041;-74
2021/11/05 09:22:54;;;;;;;12.98;8.23;;;9.90;99.90;;;;;;4123741;28;20533;-74
2021/11/05 09:24:54;;;;;;;9.00;6.18;;;10.00;99.90;;;;;;4125851;28;20046;-74
2021/11/05 09:26:55;;;;;;;11.85;6.63;;;10.10;99.90;;;;;;4124596;28;20745;-74
2021/11/05 09:28:57;;;;;;;9.48;6.10;;;10.20;99.90;;;;;;4122147;28;20049;-74
2021/11/05 09:30:58;;;;;;;18.02;10.43;;;10.20;99.90;;;;;;4121625;28;20042;-74
2021/11/05 09:32:59;;;;;;;12.38;6.80;;;10.40;99.90;;;;;;4122192;28;20670;-74
2021/11/05 09:35:00;;;;;;;12.15;7.88;;;10.40;99.90;;;;;;4124882;28;20026;-74
2021/11/05 09:37:03;;;;;;;9.07;5.88;;;10.50;99.90;;;;;;4123761;28;20056;-74
2021/11/05 09:39:04;;;;;;;11.30;6.20;;;10.60;99.90;;;;;;4121964;28;20038;-74
2021/11/05 09:41:06;;;;;;;10.55;6.05;;;10.60;99.90;;;;;;4122547;28;20035;-74
2021/11/05 09:43:07;;;;;;;14.38;9.27;;;10.70;99.90;;;;;;4121290;28;20030;-74
2021/11/05 09:45:08;;;;;;;11.73;6.55;;;10.90;99.90;;;;;;4123468;28;23014;-74
2021/11/05 09:47:09;;;;;;;13.48;6.88;;;10.90;99.90;;;;;;4121478;28;20117;-74
2021/11/05 09:49:10;;;;;;;7.68;5.15;;;11.00;99.90;;;;;;4103030;28;20050;-74
2021/11/05 09:51:11;;;;;;;5.85;4.55;;;11.10;99.90;;;;;;4123743;28;20529;-74
2021/11/05 09:53:12;;;;;;;6.30;4.13;;;11.20;99.90;;;;;;4118761;28;20108;-74
2021/11/05 09:55:14;;;;;;;8.82;4.70;;;11.30;99.90;;;;;;4120885;28;20047;-74
2021/11/05 09:57:15;;;;;;;10.68;4.68;;;11.40;99.90;;;;;;4124743;28;20050;-74
2021/11/05 09:59:16;;;;;;;6.30;4.07;;;11.50;99.90;;;;;;4119535;28;20116;-74
2021/11/05 10:01:16;;;;;;;6.57;5.18;;;11.60;99.90;;;;;;4119703;28;20034;-74
2021/11/05 10:03:18;;;;;;;5.22;4.38;;;11.70;99.90;;;;;;4121559;28;20046;-74
2021/11/05 10:05:20;;;;;;;7.50;4.28;;;11.80;99.90;;;;;;4123794;28;20054;-74
2021/11/05 10:07:21;;;;;;;8.00;3.85;;;11.80;99.90;;;;;;4104314;28;20605;-74
2021/11/05 10:09:21;;;;;;;14.85;7.40;;;11.80;99.90;;;;;;4118283;28;20129;-74
2021/11/05 10:11:32;;;;;;;10.20;5.43;;;11.90;99.90;;;;;;4121235;28;20109;-74
2021/11/05 10:13:41;;;;;;;7.45;4.40;;;12.00;99.90;;;;;;4120919;28;20493;-74
2021/11/05 10:15:46;;;;;;;9.75;5.05;;;12.00;99.90;;;;;;4120362;28;20073;-74
2021/11/05 10:17:47;;;;;;;9.43;5.20;;;12.10;99.90;;;;;;4121088;28;20334;-74
2021/11/05 10:19:50;;;;;;;9.88;5.32;;;12.10;99.90;;;;;;4120087;28;20057;-74
2021/11/05 10:21:51;;;;;;;13.55;6.57;;;12.20;99.90;;;;;;4123432;28;20038;-74
2021/11/05 10:23:52;;;;;;;8.10;5.00;;;12.20;99.90;;;;;;4121886;28;20120;-74
2021/11/05 10:25:52;;;;;;;6.78;3.70;;;12.20;99.90;;;;;;4119075;28;20047;-74